createdAt,value
2023-04-03T00:00:29.650Z,5.80
2023-04-03T00:01:33.133Z,3.40
2023-04-03T00:02:35.215Z,7.18
2023-04-03T00:03:38.465Z,7.10
2023-04-03T00:04:40.528Z,6.80
2023-04-03T00:05:43.200Z,5.70
2023-04-03T00:06:49.548Z,7.90
2023-04-03T00:07:51.502Z,2.80
2023-04-03T00:08:56.326Z,4.40
2023-04-03T00:09:58.969Z,5.90
2023-04-03T00:11:01.373Z,3.10
2023-04-03T00:12:03.495Z,6.50
2023-04-03T00:13:05.436Z,6.00
2023-04-03T00:14:07.928Z,6.20
2023-04-03T00:15:10.351Z,7.10
2023-04-03T00:16:17.438Z,5.40
2023-04-03T00:17:23.742Z,5.40
2023-04-03T00:18:25.741Z,5.30
2023-04-03T00:19:29.151Z,6.10
2023-04-03T00:20:35.061Z,6.80
2023-04-03T00:21:39.284Z,6.50
2023-04-03T00:22:41.305Z,6.60
2023-04-03T00:23:45.860Z,5.90
2023-04-03T00:24:47.787Z,5.30
2023-04-03T00:25:52.261Z,7.90
2023-04-03T00:26:54.678Z,6.60
2023-04-03T00:28:00.445Z,6.90
2023-04-03T00:29:02.999Z,6.60
2023-04-03T00:30:11.478Z,6.50
2023-04-03T00:31:17.056Z,6.20
2023-04-03T00:32:19.413Z,6.20
2023-04-03T00:33:22.946Z,6.50
2023-04-03T00:34:25.563Z,6.80
2023-04-03T00:35:29.884Z,7.60
2023-04-03T00:36:33.859Z,6.00
2023-04-03T00:37:36.069Z,7.70
2023-04-03T00:38:38.019Z,3.20
2023-04-03T00:39:40.103Z,7.60
2023-04-03T00:40:44.821Z,6.64
2023-04-03T00:41:46.797Z,6.80
2023-04-03T00:42:51.659Z,6.00
2023-04-03T00:43:54.337Z,8.20
2023-04-03T00:45:00.121Z,6.70
2023-04-03T00:46:08.170Z,7.30
2023-04-03T00:47:15.085Z,7.40
2023-04-03T00:48:20.650Z,6.40
2023-04-03T00:49:22.751Z,6.30
2023-04-03T00:50:25.208Z,6.20
2023-04-03T00:51:27.170Z,7.40
2023-04-03T00:52:31.104Z,6.60
2023-04-03T00:53:40.227Z,5.90
2023-04-03T00:54:42.194Z,1.70
2023-04-03T00:55:45.256Z,5.90
2023-04-03T00:56:50.565Z,4.40
2023-04-03T00:57:53.339Z,6.00
2023-04-03T00:59:00.212Z,4.80
2023-04-03T01:01:18.295Z,7.50
2023-04-03T01:02:21.357Z,6.70
2023-04-03T01:03:24.161Z,5.80
2023-04-03T01:04:35.281Z,1.70
2023-04-03T01:05:40.772Z,8.10
2023-04-03T01:06:43.216Z,6.60
2023-04-03T01:07:53.870Z,6.30
2023-04-03T01:08:59.125Z,6.40
2023-04-03T01:10:05.608Z,6.80
2023-04-03T01:11:07.717Z,6.70
2023-04-03T01:12:28.499Z,6.60
2023-04-03T01:13:32.557Z,6.80
2023-04-03T01:14:38.098Z,7.00
2023-04-03T01:15:40.253Z,7.60
2023-04-03T01:16:42.869Z,6.10
2023-04-03T01:17:48.415Z,6.10
2023-04-03T01:18:50.965Z,5.90
2023-04-03T01:21:32.515Z,7.00
2023-04-03T01:22:51.761Z,6.50
2023-04-03T01:24:07.609Z,5.30
2023-04-03T01:25:12.618Z,6.10
2023-04-03T01:26:14.961Z,6.10
2023-04-03T01:27:17.795Z,7.60
2023-04-03T01:29:35.600Z,6.50
2023-04-03T01:30:50.436Z,6.60
2023-04-03T01:31:56.279Z,5.30
2023-04-03T01:33:00.387Z,5.30
2023-04-03T01:34:03.128Z,6.70
2023-04-03T01:35:08.441Z,6.30
2023-04-03T01:36:15.307Z,3.20
2023-04-03T01:37:17.369Z,7.30
2023-04-03T01:38:20.740Z,7.00
2023-04-03T01:39:23.856Z,6.10
2023-04-03T01:40:26.855Z,6.90
2023-04-03T01:41:29.186Z,6.50
2023-04-03T01:42:34.434Z,7.90
2023-04-03T01:43:37.567Z,5.70
2023-04-03T01:44:40.012Z,6.70
2023-04-03T01:45:42.096Z,7.10
2023-04-03T01:46:46.154Z,7.20
2023-04-03T01:47:48.297Z,6.90
2023-04-03T01:48:51.630Z,2.60
2023-04-03T01:49:53.631Z,7.22
2023-04-03T01:50:56.317Z,6.50
2023-04-03T01:51:58.368Z,7.30
2023-04-03T01:53:00.433Z,7.20
2023-04-03T01:54:03.781Z,7.70
2023-04-03T01:55:08.333Z,6.70
2023-04-03T01:56:12.158Z,7.40
2023-04-03T01:57:14.446Z,8.00
2023-04-03T01:58:17.200Z,7.70
2023-04-03T01:59:22.263Z,8.40
2023-04-03T02:00:24.697Z,6.10
2023-04-03T02:01:27.087Z,6.40
2023-04-03T02:02:29.767Z,7.18
2023-04-03T02:03:32.107Z,6.10
2023-04-03T02:04:36.956Z,6.90
2023-04-03T02:05:39.695Z,6.00
2023-04-03T02:06:44.242Z,7.20
2023-04-03T02:07:49.778Z,6.40
2023-04-03T02:08:51.893Z,7.90
2023-04-03T02:09:55.935Z,6.00
2023-04-03T02:11:01.508Z,7.90
2023-04-03T02:12:04.847Z,6.50
2023-04-03T02:13:07.769Z,6.90
2023-04-03T02:14:15.873Z,7.10
2023-04-03T02:15:18.344Z,6.60
2023-04-03T02:16:20.956Z,6.30
2023-04-03T02:17:25.012Z,7.10
2023-04-03T02:18:26.945Z,5.80
2023-04-03T02:19:30.640Z,7.50
2023-04-03T02:20:33.725Z,6.80
2023-04-03T02:21:35.827Z,5.90
2023-04-03T02:22:37.889Z,7.20
2023-04-03T02:23:39.847Z,7.50
2023-04-03T02:24:42.304Z,6.40
2023-04-03T02:25:47.166Z,5.50
2023-04-03T02:26:49.450Z,5.10
2023-04-03T02:27:53.329Z,7.00
2023-04-03T02:28:55.896Z,6.20
2023-04-03T02:29:59.463Z,5.56
2023-04-03T02:31:01.917Z,5.50
2023-04-03T02:32:05.401Z,6.36
2023-04-03T02:33:08.248Z,5.60
2023-04-03T02:34:11.191Z,6.90
2023-04-03T02:35:15.645Z,6.20
2023-04-03T02:36:18.137Z,6.00
2023-04-03T02:37:22.012Z,6.10
2023-04-03T02:38:24.857Z,6.70
2023-04-03T02:39:27.942Z,7.30
2023-04-03T02:40:30.701Z,6.90
2023-04-03T02:41:32.753Z,6.40
2023-04-03T02:42:34.841Z,6.20
2023-04-03T02:43:38.778Z,6.10
2023-04-03T02:44:41.498Z,7.36
2023-04-03T02:45:44.868Z,6.30
2023-04-03T02:46:47.207Z,6.70
2023-04-03T02:47:49.275Z,8.90
2023-04-03T02:48:51.305Z,6.30
2023-04-03T02:49:53.852Z,6.30
2023-04-03T02:50:55.996Z,7.10
2023-04-03T02:51:58.045Z,6.30
2023-04-03T02:53:00.104Z,5.50
2023-04-03T02:54:02.472Z,6.60
2023-04-03T02:56:22.936Z,5.80
2023-04-03T02:57:25.021Z,6.90
2023-04-03T02:58:28.186Z,7.10
2023-04-03T02:59:30.512Z,6.60
2023-04-03T03:00:32.653Z,6.40
2023-04-03T03:01:35.651Z,6.10
2023-04-03T03:02:37.928Z,7.50
2023-04-03T03:03:39.845Z,8.70
2023-04-03T03:04:41.761Z,7.89
2023-04-03T03:05:43.871Z,7.90
2023-04-03T03:06:46.218Z,7.70
2023-04-03T03:07:48.350Z,5.30
2023-04-03T03:08:50.407Z,7.00
2023-04-03T03:09:52.484Z,7.00
2023-04-03T03:10:54.730Z,6.50
2023-04-03T03:11:57.735Z,7.60
2023-04-03T03:12:59.840Z,5.90
2023-04-03T03:14:02.250Z,7.00
2023-04-03T03:15:05.579Z,6.40
2023-04-03T03:16:08.766Z,7.50
2023-04-03T03:17:10.906Z,5.82
2023-04-03T03:18:12.958Z,7.70
2023-04-03T03:19:15.030Z,6.40
2023-04-03T03:20:17.410Z,8.00
2023-04-03T03:21:20.871Z,8.50
2023-04-03T03:22:22.797Z,7.50
2023-04-03T03:23:25.852Z,6.90
2023-04-03T03:24:27.844Z,6.10
2023-04-03T03:25:29.804Z,7.30
2023-04-03T03:26:32.042Z,6.90
2023-04-03T03:27:34.130Z,7.40
2023-04-03T03:28:36.788Z,9.30
2023-04-03T03:29:38.747Z,9.40
2023-04-03T03:30:41.225Z,7.30
2023-04-03T03:31:43.288Z,7.20
2023-04-03T03:32:45.534Z,6.80
2023-04-03T03:33:47.571Z,7.40
2023-04-03T03:34:49.901Z,7.90
2023-04-03T03:35:52.965Z,4.90
2023-04-03T03:36:54.925Z,7.60
2023-04-03T03:37:56.988Z,6.70
2023-04-03T03:38:59.148Z,7.20
2023-04-03T03:40:01.753Z,7.60
2023-04-03T03:41:04.732Z,6.30
2023-04-03T03:42:07.894Z,7.70
2023-04-03T03:43:09.945Z,6.70
2023-04-03T03:44:12.632Z,4.80
2023-04-03T03:45:16.039Z,1.90
2023-04-03T03:46:18.423Z,8.20
2023-04-03T03:47:20.792Z,8.90
2023-04-03T03:48:22.966Z,8.40
2023-04-03T03:49:25.196Z,6.60
2023-04-03T03:50:28.207Z,9.20
2023-04-03T03:51:30.572Z,7.10
2023-04-03T03:52:33.230Z,8.30
2023-04-03T03:53:35.759Z,8.73
2023-04-03T03:54:39.850Z,8.70
2023-04-03T03:55:42.300Z,8.90
2023-04-03T03:56:45.189Z,8.00
2023-04-03T03:57:47.601Z,5.60
2023-04-03T03:58:49.874Z,4.60
2023-04-03T03:59:52.328Z,8.60
2023-04-03T04:00:54.892Z,4.60
2023-04-03T04:01:57.294Z,10.20
2023-04-03T04:02:59.751Z,8.30
2023-04-03T04:04:02.439Z,5.64
2023-04-03T04:05:07.263Z,8.80
2023-04-03T04:06:10.178Z,8.30
2023-04-03T04:07:12.780Z,8.20
2023-04-03T04:08:15.779Z,6.10
2023-04-03T04:09:18.752Z,7.30
2023-04-03T04:10:21.797Z,9.60
2023-04-03T04:11:24.104Z,7.40
2023-04-03T04:12:26.765Z,7.40
2023-04-03T04:13:29.084Z,9.70
2023-04-03T04:14:31.435Z,9.20
2023-04-03T04:15:33.777Z,8.10
2023-04-03T04:16:36.445Z,8.00
2023-04-03T04:17:40.458Z,7.40
2023-04-03T04:18:44.311Z,9.20
2023-04-03T04:19:46.674Z,8.60
2023-04-03T04:20:49.246Z,8.50
2023-04-03T04:21:53.389Z,8.40
2023-04-03T04:22:55.721Z,9.70
2023-04-03T04:23:58.185Z,8.80
2023-04-03T04:25:00.645Z,8.30
2023-04-03T04:26:02.720Z,7.20
2023-04-03T04:27:06.617Z,9.20
2023-04-03T04:28:09.514Z,6.40
2023-04-03T04:29:13.049Z,8.40
2023-04-03T04:30:15.257Z,8.90
2023-04-03T04:31:17.581Z,9.80
2023-04-03T04:32:19.886Z,9.40
2023-04-03T04:33:21.982Z,7.70
2023-04-03T04:34:24.020Z,8.90
2023-04-03T04:35:26.505Z,8.80
2023-04-03T04:36:28.652Z,7.70
2023-04-03T04:37:30.809Z,10.00
2023-04-03T04:38:34.062Z,7.50
2023-04-03T04:39:36.237Z,8.80
2023-04-03T04:40:39.484Z,8.09
2023-04-03T04:41:41.760Z,6.50
2023-04-03T04:42:44.111Z,8.50
2023-04-03T04:43:47.101Z,8.70
2023-04-03T04:44:49.547Z,9.50
2023-04-03T04:46:06.547Z,8.30
2023-04-03T04:47:10.970Z,7.80
2023-04-03T04:48:13.049Z,10.00
2023-04-03T04:49:15.135Z,8.80
2023-04-03T04:50:17.412Z,9.30
2023-04-03T04:51:20.139Z,9.73
2023-04-03T04:52:22.302Z,10.00
2023-04-03T04:53:24.635Z,8.70
2023-04-03T04:54:26.696Z,8.90
2023-04-03T04:55:29.151Z,9.30
2023-04-03T04:56:31.942Z,9.10
2023-04-03T04:57:34.510Z,9.90
2023-04-03T04:58:37.798Z,9.10
2023-04-03T04:59:40.651Z,10.10
2023-04-03T05:00:44.465Z,11.20
2023-04-03T05:01:47.179Z,11.50
2023-04-03T05:02:51.156Z,11.00
2023-04-03T05:03:55.044Z,10.30
2023-04-03T05:04:57.741Z,9.40
2023-04-03T05:06:02.055Z,8.50
2023-04-03T05:07:05.814Z,10.70
2023-04-03T05:08:09.742Z,6.90
2023-04-03T05:09:13.416Z,8.10
2023-04-03T05:10:18.112Z,9.90
2023-04-03T05:11:21.278Z,8.70
2023-04-03T05:12:26.277Z,7.50
2023-04-03T05:13:30.500Z,7.50
2023-04-03T05:14:33.099Z,8.10
2023-04-03T05:15:37.093Z,9.40
2023-04-03T05:16:39.873Z,9.30
2023-04-03T05:17:43.459Z,7.30
2023-04-03T05:18:48.504Z,8.50
2023-04-03T05:19:53.406Z,10.40
2023-04-03T05:20:56.406Z,8.00
2023-04-03T05:22:02.508Z,9.40
2023-04-03T05:23:05.400Z,8.10
2023-04-03T05:24:09.332Z,8.10
2023-04-03T05:25:13.266Z,10.20
2023-04-03T05:26:18.693Z,9.30
2023-04-03T05:27:22.404Z,8.60
2023-04-03T05:28:26.286Z,7.30
2023-04-03T05:29:28.549Z,8.10
2023-04-03T05:30:30.889Z,7.70
2023-04-03T05:31:32.989Z,10.10
2023-04-03T05:32:35.729Z,8.70
2023-04-03T05:33:39.877Z,8.20
2023-04-03T05:34:44.170Z,8.10
2023-04-03T05:35:46.255Z,7.70
2023-04-03T05:36:50.782Z,7.90
2023-04-03T05:37:54.384Z,7.50
2023-04-03T05:38:56.744Z,8.70
2023-04-03T05:39:59.009Z,8.30
2023-04-03T05:41:01.073Z,9.20
2023-04-03T05:42:03.967Z,9.40
2023-04-03T05:43:06.381Z,9.64
2023-04-03T05:44:10.735Z,9.60
2023-04-03T05:45:13.528Z,10.80
2023-04-03T05:46:17.783Z,11.40
2023-04-03T05:47:20.923Z,6.00
2023-04-03T05:48:23.380Z,9.80
2023-04-03T05:49:25.737Z,9.80
2023-04-03T05:50:28.221Z,10.30
2023-04-03T05:51:34.285Z,9.40
2023-04-03T05:52:40.595Z,7.50
2023-04-03T05:53:42.773Z,9.70
2023-04-03T05:54:45.190Z,9.20
2023-04-03T05:55:49.584Z,9.00
2023-04-03T05:56:52.379Z,9.30
2023-04-03T05:57:54.863Z,7.91
2023-04-03T05:58:57.685Z,8.70
2023-04-03T06:00:01.266Z,9.70
2023-04-03T06:01:04.835Z,8.60
2023-04-03T06:02:07.311Z,10.10
2023-04-03T06:03:09.980Z,8.50
2023-04-03T06:04:12.691Z,9.80
2023-04-03T06:05:15.488Z,9.90
2023-04-03T06:06:17.963Z,9.90
2023-04-03T06:07:22.442Z,7.00
2023-04-03T06:08:25.250Z,8.50
2023-04-03T06:09:28.011Z,10.00
2023-04-03T06:10:30.243Z,8.70
2023-04-03T06:11:32.707Z,10.00
2023-04-03T06:12:36.059Z,6.10
2023-04-03T06:13:38.619Z,10.10
2023-04-03T06:14:41.811Z,9.90
2023-04-03T06:15:44.134Z,7.80
2023-04-03T06:16:47.167Z,9.18
2023-04-03T06:17:50.426Z,9.50
2023-04-03T06:18:52.797Z,9.80
2023-04-03T06:19:54.836Z,6.80
2023-04-03T06:20:57.434Z,9.10
2023-04-03T06:21:59.531Z,8.80
2023-04-03T06:23:05.775Z,10.10
2023-04-03T06:24:10.432Z,8.50
2023-04-03T06:25:14.448Z,9.64
2023-04-03T06:26:19.997Z,9.10
2023-04-03T06:27:25.541Z,10.30
2023-04-03T06:28:30.346Z,7.00
2023-04-03T06:29:33.154Z,7.70
2023-04-03T06:30:39.521Z,10.30
2023-04-03T06:31:43.876Z,9.90
2023-04-03T06:32:47.231Z,9.70
2023-04-03T06:33:51.906Z,9.80
2023-04-03T06:34:55.746Z,8.60
2023-04-03T06:35:58.812Z,9.10
2023-04-03T06:37:01.014Z,10.30
2023-04-03T06:38:04.911Z,8.70
2023-04-03T06:39:07.069Z,6.90
2023-04-03T06:41:28.225Z,9.60
2023-04-03T06:42:33.169Z,11.10
2023-04-03T06:43:41.773Z,9.00
2023-04-03T06:44:45.467Z,9.20
2023-04-03T06:45:48.561Z,10.80
2023-04-03T06:46:51.244Z,7.00
2023-04-03T06:47:53.159Z,10.60
2023-04-03T06:48:55.355Z,9.00
2023-04-03T06:49:57.244Z,10.56
2023-04-03T06:50:59.112Z,9.56
2023-04-03T06:52:02.807Z,10.78
2023-04-03T06:53:04.964Z,10.10
2023-04-03T06:54:07.474Z,8.80
2023-04-03T06:55:10.457Z,10.50
2023-04-03T06:56:12.555Z,7.40
2023-04-03T06:57:14.530Z,10.00
2023-04-03T06:58:17.699Z,10.80
2023-04-03T06:59:19.665Z,3.40
2023-04-03T07:00:24.761Z,10.50
2023-04-03T07:01:28.182Z,11.50
2023-04-03T07:02:30.423Z,9.10
2023-04-03T07:03:33.439Z,10.80
2023-04-03T07:04:37.779Z,8.90
2023-04-03T07:05:41.342Z,8.90
2023-04-03T07:06:44.021Z,7.60
2023-04-03T07:07:46.174Z,9.20
2023-04-03T07:08:48.284Z,8.44
2023-04-03T07:09:50.236Z,9.40
2023-04-03T07:10:52.299Z,8.30
2023-04-03T07:11:54.450Z,11.00
2023-04-03T07:12:56.749Z,8.40
2023-04-03T07:13:58.685Z,9.40
2023-04-03T07:15:02.820Z,10.50
2023-04-03T07:16:06.256Z,11.00
2023-04-03T07:17:08.433Z,5.80
2023-04-03T07:18:12.384Z,7.80
2023-04-03T07:19:14.634Z,10.60
2023-04-03T07:20:18.235Z,8.10
2023-04-03T07:21:20.260Z,10.40
2023-04-03T07:22:22.918Z,9.50
2023-04-03T07:23:25.449Z,9.50
2023-04-03T07:24:27.404Z,9.70
2023-04-03T07:25:29.361Z,10.50
2023-04-03T07:26:32.016Z,11.00
2023-04-03T07:27:34.372Z,9.40
2023-04-03T07:28:36.326Z,9.20
2023-04-03T07:29:39.370Z,5.80
2023-04-03T07:30:52.489Z,6.60
2023-04-03T07:31:55.003Z,10.00
2023-04-03T07:32:57.038Z,9.90
2023-04-03T07:33:59.717Z,10.70
2023-04-03T07:35:02.758Z,11.20
2023-04-03T07:36:06.975Z,8.40
2023-04-03T07:37:09.145Z,10.80
2023-04-03T07:38:11.725Z,10.80
2023-04-03T07:39:13.735Z,8.90
2023-04-03T07:40:17.347Z,10.70
2023-04-03T07:41:20.255Z,10.00
2023-04-03T07:42:22.327Z,10.60
2023-04-03T07:43:24.263Z,9.30
2023-04-03T07:44:26.258Z,10.40
2023-04-03T07:45:28.915Z,11.10
2023-04-03T07:46:30.847Z,9.20
2023-04-03T07:47:32.882Z,8.30
2023-04-03T07:48:35.348Z,10.30
2023-04-03T07:49:37.319Z,10.10
2023-04-03T07:50:42.513Z,1.40
2023-04-03T07:51:45.427Z,9.20
2023-04-03T07:52:47.958Z,9.91
2023-04-03T07:53:50.102Z,8.73
2023-04-03T07:54:52.045Z,7.80
2023-04-03T07:55:54.124Z,10.30
2023-04-03T07:56:56.298Z,7.40
2023-04-03T07:57:58.339Z,10.70
2023-04-03T07:59:00.793Z,8.90
2023-04-03T08:00:05.917Z,9.70
2023-04-03T08:01:09.778Z,9.80
2023-04-03T08:02:12.239Z,10.10
2023-04-03T08:03:14.838Z,10.50
2023-04-03T08:04:17.163Z,6.55
2023-04-03T08:05:20.017Z,11.10
2023-04-03T08:06:33.014Z,10.90
2023-04-03T08:07:28.214Z,11.00
2023-04-03T08:08:31.430Z,8.40
2023-04-03T08:09:33.451Z,8.40
2023-04-03T08:10:35.598Z,8.30
2023-04-03T08:11:40.753Z,8.50
2023-04-03T08:12:42.720Z,12.60
2023-04-03T08:13:45.016Z,9.90
2023-04-03T08:14:47.604Z,9.00
2023-04-03T08:15:49.571Z,10.20
2023-04-03T08:16:51.681Z,3.30
2023-04-03T08:17:55.553Z,10.90
2023-04-03T08:18:57.685Z,11.60
2023-04-03T08:19:59.651Z,10.60
2023-04-03T08:21:02.184Z,11.90
2023-04-03T08:22:04.398Z,11.50
2023-04-03T08:23:07.575Z,11.90
2023-04-03T08:24:10.105Z,11.45
2023-04-03T08:25:12.294Z,11.20
2023-04-03T08:26:15.907Z,9.30
2023-04-03T08:27:18.956Z,11.00
2023-04-03T08:28:20.946Z,12.80
2023-04-03T08:29:23.031Z,11.80
2023-04-03T08:30:24.986Z,14.30
2023-04-03T08:31:27.598Z,11.10
2023-04-03T08:32:29.662Z,11.00
2023-04-03T08:33:32.677Z,11.80
2023-04-03T08:34:34.697Z,10.60
2023-04-03T08:35:41.135Z,11.60
2023-04-03T08:36:43.688Z,7.40
2023-04-03T08:37:46.144Z,10.10
2023-04-03T08:38:49.622Z,10.10
2023-04-03T08:39:52.206Z,9.50
2023-04-03T08:42:24.721Z,7.80
2023-04-03T08:43:36.637Z,8.40
2023-04-03T08:44:42.427Z,8.00
2023-04-03T08:45:51.513Z,9.90
2023-04-03T08:47:03.838Z,7.90
2023-04-03T08:48:08.641Z,9.70
2023-04-03T08:50:38.592Z,10.60
2023-04-03T08:51:41.130Z,10.30
2023-04-03T08:54:01.287Z,10.80
2023-04-03T08:55:33.077Z,8.70
2023-04-03T08:56:35.200Z,6.80
2023-04-03T08:57:40.069Z,8.90
2023-04-03T08:58:48.525Z,7.80
2023-04-03T08:59:52.106Z,7.20
2023-04-03T09:01:04.098Z,8.20
2023-04-03T09:03:35.206Z,7.80
2023-04-03T09:04:37.460Z,9.80
2023-04-03T09:05:46.420Z,7.70
2023-04-03T09:08:02.985Z,9.10
2023-04-03T09:10:29.557Z,7.00
2023-04-03T09:11:35.381Z,3.20
2023-04-03T09:12:43.814Z,8.40
2023-04-03T09:14:09.188Z,9.60
2023-04-03T09:16:54.322Z,11.40
2023-04-03T09:18:24.016Z,8.90
2023-04-03T09:19:36.700Z,9.70
2023-04-03T09:22:16.369Z,8.30
2023-04-03T09:24:47.829Z,8.10
2023-04-03T09:25:50.995Z,8.70
2023-04-03T09:28:14.884Z,8.50
2023-04-03T09:29:19.472Z,9.30
2023-04-03T09:30:24.899Z,9.10
2023-04-03T09:31:29.629Z,8.90
2023-04-03T09:32:37.265Z,8.90
2023-04-03T09:33:39.757Z,7.40
2023-04-03T09:34:42.423Z,9.00
2023-04-03T09:35:48.598Z,8.40
2023-04-03T09:36:55.641Z,8.60
2023-04-03T09:38:13.685Z,8.00
2023-04-03T09:40:40.323Z,9.30
2023-04-03T09:41:45.273Z,9.70
2023-04-03T09:42:55.457Z,9.30
2023-04-03T09:43:56.782Z,7.30
2023-04-03T09:45:01.699Z,10.30
2023-04-03T09:47:40.936Z,10.00
2023-04-03T09:50:23.376Z,9.40
2023-04-03T09:51:28.337Z,11.00
2023-04-03T09:53:45.480Z,8.30
2023-04-03T09:54:51.441Z,9.20
2023-04-03T09:55:53.965Z,9.10
2023-04-03T09:56:58.206Z,8.70
2023-04-03T09:58:03.104Z,8.00
2023-04-03T09:59:09.451Z,10.30
2023-04-03T10:00:27.777Z,9.40
2023-04-03T10:01:34.180Z,7.20
2023-04-03T10:02:41.303Z,10.80
2023-04-03T10:03:43.384Z,4.30
2023-04-03T10:04:48.793Z,10.50
2023-04-03T10:05:50.055Z,10.90
2023-04-03T10:06:54.016Z,11.30
2023-04-03T10:08:17.631Z,11.60
2023-04-03T10:09:27.956Z,10.00
2023-04-03T10:10:31.473Z,10.40
2023-04-03T10:11:35.510Z,11.20
2023-04-03T10:12:37.527Z,10.80
2023-04-03T10:13:51.140Z,10.00
2023-04-03T10:14:59.116Z,9.50
2023-04-03T10:16:18.240Z,9.70
2023-04-03T10:17:43.302Z,9.60
2023-04-03T10:19:02.711Z,8.50
2023-04-03T10:20:09.235Z,9.60
2023-04-03T10:23:13.610Z,10.30
2023-04-03T10:25:56.351Z,9.90
2023-04-03T10:32:06.605Z,10.40
2023-04-03T10:33:40.714Z,8.40
2023-04-03T10:34:51.667Z,9.10
2023-04-03T10:36:13.996Z,8.50
2023-04-03T10:37:27.963Z,8.70
2023-04-03T10:39:05.063Z,9.70
2023-04-03T10:40:36.325Z,6.90
2023-04-03T10:42:15.160Z,6.80
2023-04-03T10:45:27.842Z,8.40
2023-04-03T10:46:41.686Z,5.40
2023-04-03T10:48:01.908Z,7.50
2023-04-03T10:49:18.909Z,8.20
2023-04-03T10:50:28.332Z,8.60
2023-04-03T10:51:34.647Z,8.00
2023-04-03T10:52:49.135Z,9.10
2023-04-03T10:54:09.683Z,8.90
2023-04-03T10:56:57.954Z,7.70
2023-04-03T10:57:56.254Z,8.20
2023-04-03T10:59:14.743Z,9.50
2023-04-03T11:01:35.058Z,10.40
2023-04-03T11:04:05.600Z,9.10
2023-04-03T11:07:54.212Z,6.80
2023-04-03T11:10:23.503Z,9.50
2023-04-03T11:11:35.838Z,8.40
2023-04-03T11:14:14.230Z,7.90
2023-04-03T11:15:17.555Z,8.70
2023-04-03T11:16:24.692Z,7.40
2023-04-03T11:17:36.493Z,7.10
2023-04-03T11:20:12.976Z,8.20
2023-04-03T11:21:18.812Z,7.40
2023-04-03T11:22:29.469Z,9.70
2023-04-03T11:23:48.282Z,7.50
2023-04-03T11:24:41.917Z,9.50
2023-04-03T11:25:45.686Z,10.70
2023-04-03T11:26:47.940Z,12.00
2023-04-03T11:28:05.474Z,9.70
2023-04-03T11:29:15.721Z,9.30
2023-04-03T11:30:21.399Z,10.10
2023-04-03T11:33:16.543Z,11.40
2023-04-03T11:34:25.616Z,9.70
2023-04-03T11:35:28.134Z,8.60
2023-04-03T11:36:35.810Z,8.40
2023-04-03T11:38:49.746Z,10.20
2023-04-03T11:39:58.314Z,8.30
2023-04-03T11:41:00.888Z,11.30
2023-04-03T11:43:49.551Z,9.30
2023-04-03T11:44:52.073Z,6.60
2023-04-03T11:45:58.674Z,11.10
2023-04-03T11:47:02.065Z,10.40
2023-04-03T11:49:53.707Z,10.00
2023-04-03T11:50:57.035Z,8.00
2023-04-03T11:51:59.052Z,9.30
2023-04-03T11:53:14.007Z,7.70
2023-04-03T11:54:45.111Z,10.90
2023-04-03T11:55:50.054Z,8.60
2023-04-03T11:56:52.485Z,10.40
2023-04-03T11:58:03.784Z,9.30
2023-04-03T11:59:17.566Z,8.50
2023-04-03T12:00:45.876Z,9.70
2023-04-03T12:01:51.523Z,8.80
2023-04-03T12:02:55.521Z,8.10
2023-04-03T12:04:01.974Z,10.00
2023-04-03T12:05:29.690Z,8.90
2023-04-03T12:06:38.695Z,8.40
2023-04-03T12:07:40.896Z,8.20
2023-04-03T12:08:47.557Z,9.50
2023-04-03T12:09:55.336Z,9.10
2023-04-03T12:11:13.521Z,8.90
2023-04-03T12:13:51.274Z,8.80
2023-04-03T12:14:53.315Z,10.20
2023-04-03T12:17:12.325Z,6.30
2023-04-03T12:18:51.869Z,9.70
2023-04-03T12:19:57.597Z,11.20
2023-04-03T12:21:03.765Z,11.30
2023-04-03T12:22:08.708Z,11.40
2023-04-03T12:23:34.724Z,10.70
2023-04-03T12:24:38.912Z,8.90
2023-04-03T12:25:44.676Z,10.90
2023-04-03T12:27:00.954Z,10.20
2023-04-03T12:28:05.645Z,11.00
2023-04-03T12:29:26.528Z,10.90
2023-04-03T12:30:30.923Z,11.40
2023-04-03T12:31:42.012Z,10.30
2023-04-03T12:32:49.376Z,9.90
2023-04-03T12:35:52.683Z,11.00
2023-04-03T12:37:03.852Z,6.40
2023-04-03T12:38:28.014Z,6.80
2023-04-03T12:39:59.686Z,11.50
2023-04-03T12:41:24.661Z,9.10
2023-04-03T12:43:57.918Z,11.40
2023-04-03T12:45:15.292Z,10.40
2023-04-03T12:46:24.486Z,11.20
2023-04-03T12:47:35.592Z,9.80
2023-04-03T12:48:56.899Z,10.80
2023-04-03T12:50:02.248Z,9.70
2023-04-03T12:52:40.906Z,10.10
2023-04-03T12:53:43.256Z,9.50
2023-04-03T12:54:47.841Z,9.50
2023-04-03T12:57:25.212Z,7.80
2023-04-03T12:58:28.919Z,7.60
2023-04-03T12:59:31.471Z,7.90
2023-04-03T13:00:35.592Z,8.36
2023-04-03T13:01:37.645Z,7.00
2023-04-03T13:02:40.282Z,7.60
2023-04-03T13:03:47.931Z,10.00
2023-04-03T13:04:52.034Z,10.70
2023-04-03T13:07:10.340Z,8.60
2023-04-03T13:08:13.162Z,9.60
2023-04-03T13:09:26.667Z,8.82
2023-04-03T13:10:29.493Z,7.60
2023-04-03T13:11:38.835Z,6.82
2023-04-03T13:12:54.950Z,7.40
2023-04-03T13:15:27.742Z,7.60
2023-04-03T13:16:30.018Z,7.70
2023-04-03T13:17:32.479Z,7.60
2023-04-03T13:18:35.340Z,7.30
2023-04-03T13:19:37.944Z,7.36
2023-04-03T13:20:40.256Z,6.73
2023-04-03T13:21:42.419Z,5.60
2023-04-03T13:22:54.218Z,7.10
2023-04-03T13:25:10.106Z,10.10
2023-04-03T13:26:13.478Z,8.80
2023-04-03T13:27:15.982Z,7.30
2023-04-03T13:28:20.852Z,6.60
2023-04-03T13:29:31.443Z,8.30
2023-04-03T13:30:35.904Z,5.80
2023-04-03T13:31:39.274Z,5.80
2023-04-03T13:32:41.721Z,5.60
2023-04-03T13:35:17.786Z,4.60
2023-04-03T13:37:30.064Z,5.90
2023-04-03T13:38:32.744Z,6.40
2023-04-03T13:39:38.961Z,6.60
2023-04-03T13:42:01.043Z,7.40
2023-04-03T13:44:18.666Z,6.60
2023-04-03T13:45:24.220Z,5.30
2023-04-03T13:46:27.548Z,6.30
2023-04-03T13:47:33.570Z,6.30
2023-04-03T13:48:43.994Z,5.30
2023-04-03T13:50:14.669Z,5.60
2023-04-03T13:51:29.937Z,6.00
2023-04-03T13:52:34.227Z,1.80
2023-04-03T13:53:51.904Z,3.40
2023-04-03T13:57:19.157Z,7.40
2023-04-03T13:58:23.531Z,3.80
2023-04-03T13:59:35.423Z,5.80
2023-04-03T14:00:49.760Z,4.20
2023-04-03T14:01:57.839Z,4.50
2023-04-03T14:03:00.370Z,5.70
2023-04-03T14:04:06.183Z,5.30
2023-04-03T14:05:08.407Z,5.00
2023-04-03T14:06:13.577Z,6.55
2023-04-03T14:07:16.993Z,2.30
2023-04-03T14:08:24.118Z,5.40
2023-04-03T14:09:24.848Z,3.30
2023-04-03T14:10:26.868Z,5.40
2023-04-03T14:11:30.675Z,4.70
2023-04-03T14:12:37.683Z,2.00
2023-04-03T14:13:39.682Z,4.20
2023-04-03T14:14:41.723Z,6.00
2023-04-03T14:15:43.658Z,5.30
2023-04-03T14:16:49.139Z,5.70
2023-04-03T14:17:51.805Z,5.00
2023-04-03T14:18:54.638Z,5.80
2023-04-03T14:19:57.303Z,2.30
2023-04-03T14:20:59.585Z,6.00
2023-04-03T14:22:05.386Z,2.50
2023-04-03T14:23:07.353Z,4.40
2023-04-03T14:24:09.273Z,5.70
2023-04-03T14:25:11.247Z,3.80
2023-04-03T14:26:16.887Z,5.90
2023-04-03T14:27:24.760Z,5.50
2023-04-03T14:28:26.747Z,4.60
2023-04-03T14:29:29.358Z,5.00
2023-04-03T14:30:32.780Z,5.40
2023-04-03T14:31:34.798Z,5.30
2023-04-03T14:32:38.696Z,6.00
2023-04-03T14:33:40.808Z,4.00
2023-04-03T14:34:43.034Z,5.40
2023-04-03T14:35:45.783Z,4.80
2023-04-03T14:36:47.832Z,4.90
2023-04-03T14:37:52.246Z,5.50
2023-04-03T14:38:55.072Z,5.30
2023-04-03T14:39:58.262Z,4.82
2023-04-03T14:41:13.724Z,5.60
2023-04-03T14:42:04.135Z,4.20
2023-04-03T14:43:07.593Z,5.00
2023-04-03T14:44:10.656Z,5.50
2023-04-03T14:45:12.740Z,4.30
2023-04-03T14:46:18.015Z,5.30
2023-04-03T14:47:30.519Z,3.90
2023-04-03T14:48:27.927Z,4.90
2023-04-03T14:49:30.006Z,5.10
2023-04-03T14:50:32.179Z,5.00
2023-04-03T14:52:57.988Z,3.20
2023-04-03T14:54:00.058Z,3.30
2023-04-03T14:55:02.994Z,3.70
2023-04-03T14:59:32.852Z,4.40
2023-04-03T15:02:39.537Z,3.40
2023-04-03T15:03:42.499Z,3.00
2023-04-03T15:04:45.317Z,3.00
2023-04-03T15:05:48.924Z,4.70
2023-04-03T15:06:51.981Z,2.80
2023-04-03T15:07:56.194Z,0.90
2023-04-03T15:08:58.648Z,3.80
2023-04-03T15:13:33.828Z,4.30
2023-04-03T15:14:47.250Z,5.00
2023-04-03T15:19:49.261Z,5.00
2023-04-03T15:20:51.235Z,2.30
2023-04-03T15:21:53.326Z,3.00
2023-04-03T15:22:55.767Z,2.80
2023-04-03T15:23:59.545Z,3.00
2023-04-03T15:26:04.336Z,3.10
2023-04-03T15:27:06.278Z,2.60
2023-04-03T15:29:11.420Z,3.20
2023-04-03T15:30:17.198Z,3.20
2023-04-03T15:31:19.585Z,3.80
2023-04-03T15:32:22.053Z,2.27
2023-04-03T15:33:24.505Z,2.20
2023-04-03T15:34:26.663Z,3.80
2023-04-03T15:35:29.156Z,1.90
2023-04-03T15:36:34.643Z,3.55
2023-04-03T15:37:37.037Z,4.00
2023-04-03T15:38:39.170Z,3.20
2023-04-03T15:39:41.952Z,4.10
2023-04-03T15:40:44.711Z,2.00
2023-04-03T15:41:46.765Z,2.80
2023-04-03T15:42:51.279Z,4.20
2023-04-03T15:43:54.210Z,2.80
2023-04-03T15:44:57.108Z,3.60
2023-04-03T15:46:00.242Z,3.00
2023-04-03T15:47:02.260Z,2.30
2023-04-03T15:48:05.139Z,3.00
2023-04-03T15:49:07.348Z,2.70
2023-04-03T15:50:11.315Z,3.20